VTK601 UEEE-UHMM
Flight info
| Callsign | VTK601 |
|---|---|
| Flight time | 1h 30m |
| Altitude | 37000 |
| Route | KUTEG6E KUTEG G370 INLIR A949 KUKIR KUKIR5J |
| Aircraft | MD11/H-SDE1E2E3FGHIJ2J3J4J5M1RWXY/LB1D1 |
Departure
| Time | 2026-04-15 05:42 |
|---|---|
| Airport | Platon Oyunsky Yakutsk International Airport (UEEE) |
Arrival
| Time | 2026-04-15 07:13 |
|---|---|
| Airport | Sokol Airport (UHMM) |
| Time | Latitude | Longitude | Altitude | Speed | Heading |
|---|---|---|---|---|---|
| 2026-04-15 05:31 | 62.08776 | 129.75471 | 339 ft | 0 kts | 299° |
| 2026-04-15 05:39 | 62.08780 | 129.75456 | 339 ft | 4 kts | 297° |
| 2026-04-15 05:39 | 62.08770 | 129.75375 | 333 ft | 5 kts | 218° |
| 2026-04-15 05:39 | 62.08723 | 129.75356 | 335 ft | 9 kts | 189° |
| 2026-04-15 05:39 | 62.08648 | 129.75331 | 338 ft | 13 kts | 189° |
| 2026-04-15 05:40 | 62.08555 | 129.75290 | 335 ft | 11 kts | 202° |
| 2026-04-15 05:40 | 62.08484 | 129.75208 | 334 ft | 13 kts | 207° |
| 2026-04-15 05:40 | 62.08390 | 129.75123 | 333 ft | 15 kts | 184° |
| 2026-04-15 05:40 | 62.08317 | 129.75247 | 334 ft | 15 kts | 124° |
| 2026-04-15 05:41 | 62.08255 | 129.75458 | 334 ft | 19 kts | 117° |
| 2026-04-15 05:41 | 62.08225 | 129.75706 | 340 ft | 12 kts | 74° |
| 2026-04-15 05:41 | 62.08252 | 129.75773 | 334 ft | 4 kts | 38° |
| 2026-04-15 05:41 | 62.08491 | 129.76156 | 348 ft | 92 kts | 37° |
| 2026-04-15 05:42 | 62.09248 | 129.77364 | 362 ft | 172 kts | 36° |
| 2026-04-15 05:42 | 62.10254 | 129.78892 | 1135 ft | 182 kts | 37° |
| 2026-04-15 05:42 | 62.11280 | 129.80524 | 2264 ft | 185 kts | 36° |
| 2026-04-15 05:42 | 62.12307 | 129.82192 | 3392 ft | 186 kts | 36° |
| 2026-04-15 05:43 | 62.13311 | 129.83812 | 4627 ft | 179 kts | 34° |
| 2026-04-15 05:43 | 62.14410 | 129.85581 | 4982 ft | 217 kts | 35° |
| 2026-04-15 05:43 | 62.15694 | 129.87654 | 5152 ft | 244 kts | 35° |
| 2026-04-15 05:43 | 62.17105 | 129.89934 | 5505 ft | 260 kts | 35° |
| 2026-04-15 05:44 | 62.18545 | 129.92319 | 6454 ft | 263 kts | 39° |
| 2026-04-15 05:44 | 62.19757 | 129.95297 | 7365 ft | 269 kts | 59° |
| 2026-04-15 05:44 | 62.20314 | 129.99144 | 8294 ft | 275 kts | 88° |
| 2026-04-15 05:44 | 62.20000 | 130.03194 | 9211 ft | 280 kts | 110° |
| 2026-04-15 05:45 | 62.19232 | 130.07055 | 10136 ft | 284 kts | 116° |
| 2026-04-15 05:45 | 62.18323 | 130.11058 | 10405 ft | 315 kts | 117° |
| 2026-04-15 05:45 | 62.17302 | 130.15474 | 10543 ft | 346 kts | 117° |
| 2026-04-15 05:45 | 62.16220 | 130.20202 | 11199 ft | 357 kts | 117° |
| 2026-04-15 05:46 | 62.15136 | 130.25007 | 12098 ft | 361 kts | 117° |
| 2026-04-15 05:46 | 62.14043 | 130.29884 | 13018 ft | 366 kts | 116° |
| 2026-04-15 05:46 | 62.12942 | 130.34818 | 13936 ft | 370 kts | 117° |
| 2026-04-15 05:46 | 62.11825 | 130.39821 | 14758 ft | 375 kts | 117° |
| 2026-04-15 05:47 | 62.10699 | 130.44874 | 15602 ft | 379 kts | 117° |
| 2026-04-15 05:47 | 62.09559 | 130.49977 | 16426 ft | 383 kts | 117° |
| 2026-04-15 05:47 | 62.08404 | 130.55134 | 17263 ft | 387 kts | 117° |
| 2026-04-15 05:47 | 62.07232 | 130.60358 | 18082 ft | 392 kts | 118° |
| 2026-04-15 05:48 | 62.06046 | 130.65635 | 18815 ft | 396 kts | 118° |
| 2026-04-15 05:48 | 62.04896 | 130.70990 | 19459 ft | 401 kts | 112° |
| 2026-04-15 05:48 | 62.04160 | 130.76754 | 20167 ft | 406 kts | 103° |
| 2026-04-15 05:48 | 62.03724 | 130.82749 | 20771 ft | 412 kts | 99° |
| 2026-04-15 05:49 | 62.03407 | 130.88857 | 21446 ft | 416 kts | 98° |
| 2026-04-15 05:49 | 62.03117 | 130.95020 | 22141 ft | 420 kts | 98° |
| 2026-04-15 05:49 | 62.02814 | 131.01232 | 22851 ft | 423 kts | 99° |
| 2026-04-15 05:49 | 62.02490 | 131.07486 | 23555 ft | 427 kts | 99° |
| 2026-04-15 05:50 | 62.02149 | 131.13782 | 24149 ft | 430 kts | 100° |
| 2026-04-15 05:50 | 62.01792 | 131.20128 | 24737 ft | 432 kts | 100° |
| 2026-04-15 05:50 | 62.01057 | 131.32849 | 25959 ft | 436 kts | 101° |
| 2026-04-15 05:51 | 62.00679 | 131.39260 | 26517 ft | 438 kts | 101° |
| 2026-04-15 05:51 | 62.00294 | 131.45725 | 27056 ft | 441 kts | 101° |
| 2026-04-15 05:51 | 61.99903 | 131.52226 | 27589 ft | 444 kts | 101° |
| 2026-04-15 05:51 | 61.99506 | 131.58760 | 28115 ft | 447 kts | 101° |
| 2026-04-15 05:52 | 61.99105 | 131.65340 | 28599 ft | 450 kts | 101° |
| 2026-04-15 05:52 | 61.98699 | 131.71965 | 29117 ft | 452 kts | 102° |
| 2026-04-15 05:52 | 61.98287 | 131.78628 | 29593 ft | 455 kts | 102° |
| 2026-04-15 05:52 | 61.97869 | 131.85319 | 30062 ft | 458 kts | 102° |
| 2026-04-15 05:53 | 61.97445 | 131.92056 | 30445 ft | 461 kts | 102° |
| 2026-04-15 05:53 | 61.97015 | 131.98830 | 30824 ft | 463 kts | 102° |
| 2026-04-15 05:53 | 61.96581 | 132.05627 | 31275 ft | 464 kts | 102° |
| 2026-04-15 05:53 | 61.96145 | 132.12424 | 31724 ft | 465 kts | 102° |
| 2026-04-15 05:54 | 61.95704 | 132.19229 | 32168 ft | 465 kts | 102° |
| 2026-04-15 05:54 | 61.95260 | 132.26036 | 32592 ft | 466 kts | 102° |
| 2026-04-15 05:54 | 61.94810 | 132.32847 | 33026 ft | 466 kts | 102° |
| 2026-04-15 05:54 | 61.94357 | 132.39660 | 33434 ft | 466 kts | 102° |
| 2026-04-15 05:55 | 61.93897 | 132.46484 | 33834 ft | 466 kts | 102° |
| 2026-04-15 05:55 | 61.93406 | 132.53290 | 34195 ft | 466 kts | 102° |
| 2026-04-15 05:55 | 61.92904 | 132.60089 | 34516 ft | 466 kts | 102° |
| 2026-04-15 05:55 | 61.92411 | 132.66900 | 34818 ft | 467 kts | 102° |
| 2026-04-15 05:56 | 61.92092 | 132.71409 | 35028 ft | 467 kts | 102° |
| 2026-04-15 05:56 | 61.91618 | 132.78242 | 35322 ft | 468 kts | 102° |
| 2026-04-15 05:56 | 61.90991 | 132.87377 | 35711 ft | 468 kts | 102° |
| 2026-04-15 05:56 | 61.90680 | 132.91904 | 35889 ft | 468 kts | 102° |
| 2026-04-15 05:57 | 61.90208 | 132.98743 | 36159 ft | 469 kts | 102° |
| 2026-04-15 05:57 | 61.89732 | 133.05578 | 36434 ft | 469 kts | 102° |
| 2026-04-15 05:57 | 61.89251 | 133.12428 | 36710 ft | 469 kts | 102° |
| 2026-04-15 05:57 | 61.88767 | 133.19274 | 36953 ft | 470 kts | 102° |
| 2026-04-15 05:58 | 61.88276 | 133.26153 | 37017 ft | 474 kts | 102° |
| 2026-04-15 05:58 | 61.87277 | 133.39999 | 37029 ft | 473 kts | 102° |
| 2026-04-15 05:59 | 61.86274 | 133.53743 | 37039 ft | 471 kts | 102° |
| 2026-04-15 05:59 | 61.85235 | 133.67462 | 37039 ft | 472 kts | 103° |
| 2026-04-15 06:00 | 61.84129 | 133.81145 | 37034 ft | 470 kts | 103° |
| 2026-04-15 06:00 | 61.83032 | 133.94771 | 37049 ft | 469 kts | 103° |
| 2026-04-15 06:01 | 61.81937 | 134.08382 | 37037 ft | 469 kts | 103° |
| 2026-04-15 06:01 | 61.80831 | 134.21997 | 37040 ft | 469 kts | 103° |
| 2026-04-15 06:02 | 61.79715 | 134.35584 | 37032 ft | 469 kts | 103° |
| 2026-04-15 06:02 | 61.78588 | 134.49161 | 37036 ft | 469 kts | 103° |
| 2026-04-15 06:03 | 61.77444 | 134.62724 | 37034 ft | 469 kts | 103° |
| 2026-04-15 06:03 | 61.76288 | 134.76282 | 37035 ft | 469 kts | 103° |
| 2026-04-15 06:04 | 61.75121 | 134.89809 | 37037 ft | 468 kts | 103° |
| 2026-04-15 06:04 | 61.73940 | 135.03315 | 37006 ft | 468 kts | 103° |
| 2026-04-15 06:05 | 61.72737 | 135.16785 | 37032 ft | 466 kts | 104° |
| 2026-04-15 06:05 | 61.71499 | 135.30197 | 37032 ft | 466 kts | 104° |
| 2026-04-15 06:06 | 61.70286 | 135.43614 | 37032 ft | 466 kts | 104° |
| 2026-04-15 06:06 | 61.69082 | 135.57029 | 37029 ft | 466 kts | 104° |
| 2026-04-15 06:07 | 61.67871 | 135.70450 | 37031 ft | 466 kts | 104° |
| 2026-04-15 06:07 | 61.66649 | 135.83853 | 37013 ft | 466 kts | 104° |
| 2026-04-15 06:08 | 61.65411 | 135.97235 | 37021 ft | 466 kts | 104° |
| 2026-04-15 06:08 | 61.64130 | 136.10579 | 37023 ft | 465 kts | 104° |
| 2026-04-15 06:09 | 61.62844 | 136.23904 | 37028 ft | 465 kts | 104° |
| 2026-04-15 06:09 | 61.61562 | 136.37236 | 37023 ft | 464 kts | 104° |
| 2026-04-15 06:10 | 61.60276 | 136.50515 | 37018 ft | 464 kts | 104° |
| 2026-04-15 06:10 | 61.58978 | 136.63788 | 37018 ft | 464 kts | 104° |
| 2026-04-15 06:11 | 61.57669 | 136.77059 | 37019 ft | 464 kts | 105° |
| 2026-04-15 06:11 | 61.56345 | 136.90299 | 37020 ft | 464 kts | 105° |
| 2026-04-15 06:12 | 61.55007 | 137.03534 | 37019 ft | 464 kts | 105° |
| 2026-04-15 06:12 | 61.53657 | 137.16752 | 37020 ft | 464 kts | 105° |
| 2026-04-15 06:13 | 61.52296 | 137.29963 | 37013 ft | 463 kts | 105° |
| 2026-04-15 06:13 | 61.50922 | 137.43152 | 37017 ft | 464 kts | 105° |
| 2026-04-15 06:14 | 61.49535 | 137.56344 | 37010 ft | 463 kts | 105° |
| 2026-04-15 06:14 | 61.48133 | 137.69452 | 37018 ft | 460 kts | 106° |
| 2026-04-15 06:15 | 61.46661 | 137.82490 | 37010 ft | 460 kts | 106° |
| 2026-04-15 06:15 | 61.45203 | 137.95526 | 37010 ft | 460 kts | 106° |
| 2026-04-15 06:16 | 61.43764 | 138.08571 | 37010 ft | 461 kts | 106° |
| 2026-04-15 06:16 | 61.42327 | 138.21608 | 37009 ft | 461 kts | 106° |
| 2026-04-15 06:17 | 61.40876 | 138.34639 | 37000 ft | 460 kts | 106° |
| 2026-04-15 06:17 | 61.39423 | 138.47560 | 37000 ft | 460 kts | 106° |
| 2026-04-15 06:18 | 61.37935 | 138.60635 | 37003 ft | 460 kts | 106° |
| 2026-04-15 06:18 | 61.36448 | 138.73617 | 37001 ft | 460 kts | 106° |
| 2026-04-15 06:19 | 61.34947 | 138.86574 | 36996 ft | 460 kts | 107° |
| 2026-04-15 06:19 | 61.33431 | 138.99517 | 36991 ft | 459 kts | 107° |
| 2026-04-15 06:20 | 61.31915 | 139.12357 | 36990 ft | 460 kts | 107° |
| 2026-04-15 06:20 | 61.30377 | 139.25275 | 36994 ft | 460 kts | 107° |
| 2026-04-15 06:21 | 61.28821 | 139.38161 | 36992 ft | 459 kts | 107° |
| 2026-04-15 06:21 | 61.27190 | 139.51004 | 36996 ft | 459 kts | 107° |
| 2026-04-15 06:22 | 61.25582 | 139.63854 | 36996 ft | 460 kts | 107° |
| 2026-04-15 06:22 | 61.23990 | 139.76711 | 36993 ft | 460 kts | 107° |
| 2026-04-15 06:23 | 61.22391 | 139.89564 | 36981 ft | 459 kts | 107° |
| 2026-04-15 06:23 | 61.20783 | 140.02397 | 36988 ft | 460 kts | 107° |
| 2026-04-15 06:24 | 61.19155 | 140.15258 | 36994 ft | 461 kts | 107° |
| 2026-04-15 06:24 | 61.17514 | 140.28090 | 36984 ft | 461 kts | 107° |
| 2026-04-15 06:25 | 61.15864 | 140.40912 | 36980 ft | 461 kts | 107° |
| 2026-04-15 06:25 | 61.14200 | 140.53732 | 36978 ft | 461 kts | 107° |
| 2026-04-15 06:26 | 61.12505 | 140.66522 | 36982 ft | 461 kts | 108° |
| 2026-04-15 06:26 | 61.10807 | 140.79297 | 36980 ft | 461 kts | 107° |
| 2026-04-15 06:27 | 61.09101 | 140.92088 | 36978 ft | 461 kts | 107° |
| 2026-04-15 06:27 | 61.07386 | 141.04850 | 36979 ft | 461 kts | 108° |
| 2026-04-15 06:28 | 61.05658 | 141.17614 | 36980 ft | 461 kts | 108° |
| 2026-04-15 06:28 | 61.03916 | 141.30362 | 36985 ft | 462 kts | 108° |
| 2026-04-15 06:29 | 61.02161 | 141.43132 | 36989 ft | 463 kts | 108° |
| 2026-04-15 06:29 | 61.00391 | 141.55876 | 36992 ft | 463 kts | 108° |
| 2026-04-15 06:30 | 60.98581 | 141.68600 | 36992 ft | 462 kts | 108° |
| 2026-04-15 06:30 | 60.96755 | 141.81304 | 36993 ft | 463 kts | 108° |
| 2026-04-15 06:31 | 60.94942 | 141.94021 | 36988 ft | 463 kts | 108° |
| 2026-04-15 06:31 | 60.93130 | 142.06722 | 36988 ft | 463 kts | 108° |
| 2026-04-15 06:32 | 60.91305 | 142.19418 | 36983 ft | 463 kts | 108° |
| 2026-04-15 06:32 | 60.89466 | 142.32095 | 36976 ft | 464 kts | 108° |
| 2026-04-15 06:33 | 60.87613 | 142.44793 | 36973 ft | 465 kts | 108° |
| 2026-04-15 06:33 | 60.85745 | 142.57492 | 36971 ft | 465 kts | 108° |
| 2026-04-15 06:34 | 60.83863 | 142.70189 | 36971 ft | 465 kts | 108° |
| 2026-04-15 06:34 | 60.81969 | 142.82865 | 36971 ft | 465 kts | 108° |
| 2026-04-15 06:35 | 60.80064 | 142.95529 | 36971 ft | 465 kts | 108° |
| 2026-04-15 06:35 | 60.78142 | 143.08183 | 36976 ft | 465 kts | 108° |
| 2026-04-15 06:36 | 60.76151 | 143.20800 | 36978 ft | 466 kts | 109° |
| 2026-04-15 06:36 | 60.74164 | 143.33423 | 36977 ft | 466 kts | 108° |
| 2026-04-15 06:37 | 60.72196 | 143.46048 | 36977 ft | 466 kts | 108° |
| 2026-04-15 06:37 | 60.70558 | 143.56528 | 36976 ft | 466 kts | 108° |
| 2026-04-15 06:38 | 60.68578 | 143.69131 | 36982 ft | 466 kts | 109° |
| 2026-04-15 06:38 | 60.66583 | 143.81734 | 36985 ft | 467 kts | 108° |
| 2026-04-15 06:39 | 60.64579 | 143.94290 | 36976 ft | 464 kts | 108° |
| 2026-04-15 06:39 | 60.62567 | 144.06803 | 36980 ft | 465 kts | 108° |
| 2026-04-15 06:40 | 60.60543 | 144.19307 | 36980 ft | 465 kts | 109° |
| 2026-04-15 06:40 | 60.58485 | 144.31781 | 36980 ft | 465 kts | 109° |
| 2026-04-15 06:41 | 60.56414 | 144.44236 | 36978 ft | 465 kts | 109° |
| 2026-04-15 06:41 | 60.54358 | 144.56684 | 36977 ft | 465 kts | 109° |
| 2026-04-15 06:42 | 60.52300 | 144.69148 | 36975 ft | 465 kts | 109° |
| 2026-04-15 06:42 | 60.50234 | 144.81592 | 36966 ft | 465 kts | 109° |
| 2026-04-15 06:43 | 60.48156 | 144.94003 | 36963 ft | 465 kts | 109° |
| 2026-04-15 06:43 | 60.46065 | 145.06402 | 36963 ft | 465 kts | 109° |
| 2026-04-15 06:44 | 60.43962 | 145.18781 | 36962 ft | 465 kts | 109° |
| 2026-04-15 06:44 | 60.41849 | 145.31142 | 36963 ft | 465 kts | 109° |
| 2026-04-15 06:45 | 60.39741 | 145.43411 | 36955 ft | 464 kts | 109° |
| 2026-04-15 06:45 | 60.37594 | 145.55800 | 36955 ft | 463 kts | 109° |
| 2026-04-15 06:46 | 60.35464 | 145.68014 | 36952 ft | 463 kts | 109° |
| 2026-04-15 06:46 | 60.33313 | 145.80268 | 36952 ft | 463 kts | 110° |
| 2026-04-15 06:47 | 60.31101 | 145.92583 | 36950 ft | 464 kts | 108° |
| 2026-04-15 06:47 | 60.29762 | 146.05321 | 36953 ft | 465 kts | 98° |
| 2026-04-15 06:48 | 60.28993 | 146.18208 | 36953 ft | 466 kts | 96° |
| 2026-04-15 06:48 | 60.28224 | 146.31163 | 36950 ft | 465 kts | 97° |
| 2026-04-15 06:49 | 60.27376 | 146.44180 | 36948 ft | 465 kts | 98° |
| 2026-04-15 06:49 | 60.26503 | 146.57018 | 36949 ft | 465 kts | 98° |
| 2026-04-15 06:50 | 60.25612 | 146.69903 | 36379 ft | 462 kts | 98° |
| 2026-04-15 06:50 | 60.25166 | 146.76274 | 35946 ft | 459 kts | 98° |
| 2026-04-15 06:50 | 60.24718 | 146.82627 | 35407 ft | 457 kts | 98° |
| 2026-04-15 06:50 | 60.24269 | 146.88951 | 34875 ft | 454 kts | 98° |
| 2026-04-15 06:51 | 60.23820 | 146.95235 | 34360 ft | 452 kts | 98° |
| 2026-04-15 06:51 | 60.23369 | 147.01494 | 33819 ft | 451 kts | 98° |
| 2026-04-15 06:51 | 60.22917 | 147.07726 | 33247 ft | 449 kts | 97° |
| 2026-04-15 06:51 | 60.22466 | 147.13926 | 32703 ft | 447 kts | 97° |
| 2026-04-15 06:52 | 60.22016 | 147.20101 | 32183 ft | 445 kts | 97° |
| 2026-04-15 06:52 | 60.21565 | 147.26252 | 31669 ft | 444 kts | 97° |
| 2026-04-15 06:52 | 60.21111 | 147.32390 | 31142 ft | 443 kts | 97° |
| 2026-04-15 06:52 | 60.20654 | 147.38517 | 30611 ft | 442 kts | 97° |
| 2026-04-15 06:53 | 60.20195 | 147.44619 | 30082 ft | 441 kts | 97° |
| 2026-04-15 06:53 | 60.19735 | 147.50704 | 29411 ft | 440 kts | 97° |
| 2026-04-15 06:53 | 60.19273 | 147.56775 | 28795 ft | 440 kts | 97° |
| 2026-04-15 06:53 | 60.18790 | 147.62856 | 28194 ft | 441 kts | 98° |
| 2026-04-15 06:54 | 60.18284 | 147.68953 | 27609 ft | 442 kts | 98° |
| 2026-04-15 06:54 | 60.17779 | 147.75051 | 27003 ft | 442 kts | 98° |
| 2026-04-15 06:54 | 60.17282 | 147.81152 | 26424 ft | 442 kts | 97° |
| 2026-04-15 06:54 | 60.16794 | 147.87226 | 25840 ft | 439 kts | 97° |
| 2026-04-15 06:55 | 60.16313 | 147.93248 | 25263 ft | 434 kts | 98° |
| 2026-04-15 06:55 | 60.15838 | 147.99207 | 24691 ft | 430 kts | 98° |
| 2026-04-15 06:55 | 60.15365 | 148.05100 | 24132 ft | 426 kts | 98° |
| 2026-04-15 06:55 | 60.14896 | 148.10936 | 23566 ft | 422 kts | 98° |
| 2026-04-15 06:56 | 60.14429 | 148.16715 | 22917 ft | 418 kts | 98° |
| 2026-04-15 06:56 | 60.13964 | 148.22446 | 22321 ft | 415 kts | 98° |
| 2026-04-15 06:56 | 60.13497 | 148.28131 | 21765 ft | 412 kts | 98° |
| 2026-04-15 06:56 | 60.13031 | 148.33803 | 21209 ft | 411 kts | 98° |
| 2026-04-15 06:57 | 60.12567 | 148.39435 | 20666 ft | 408 kts | 98° |
| 2026-04-15 06:57 | 60.12101 | 148.45044 | 20114 ft | 407 kts | 98° |
| 2026-04-15 06:57 | 60.11634 | 148.50625 | 19587 ft | 405 kts | 98° |
| 2026-04-15 06:57 | 60.11166 | 148.56186 | 19034 ft | 404 kts | 98° |
| 2026-04-15 06:58 | 60.10699 | 148.61716 | 18499 ft | 401 kts | 98° |
| 2026-04-15 06:58 | 60.10231 | 148.67222 | 17930 ft | 400 kts | 99° |
| 2026-04-15 06:58 | 60.09764 | 148.72698 | 17352 ft | 397 kts | 99° |
| 2026-04-15 06:58 | 60.09297 | 148.78135 | 16805 ft | 394 kts | 99° |
| 2026-04-15 06:59 | 60.08832 | 148.83520 | 16285 ft | 391 kts | 99° |
| 2026-04-15 06:59 | 60.08375 | 148.88803 | 15761 ft | 388 kts | 99° |
| 2026-04-15 06:59 | 60.07913 | 148.94112 | 15244 ft | 386 kts | 99° |
| 2026-04-15 06:59 | 60.07451 | 148.99381 | 14743 ft | 383 kts | 99° |
| 2026-04-15 07:00 | 60.06990 | 149.04613 | 14222 ft | 380 kts | 99° |
| 2026-04-15 07:00 | 60.06525 | 149.09792 | 13702 ft | 377 kts | 100° |
| 2026-04-15 07:00 | 60.06044 | 149.14918 | 13160 ft | 373 kts | 100° |
| 2026-04-15 07:00 | 60.05566 | 149.20010 | 12650 ft | 371 kts | 100° |
| 2026-04-15 07:01 | 60.05096 | 149.25060 | 12192 ft | 368 kts | 100° |
| 2026-04-15 07:01 | 60.04629 | 149.30102 | 11788 ft | 366 kts | 100° |
| 2026-04-15 07:01 | 60.04166 | 149.35094 | 11389 ft | 365 kts | 99° |
| 2026-04-15 07:01 | 60.03715 | 149.40070 | 11028 ft | 362 kts | 99° |
| 2026-04-15 07:02 | 60.03274 | 149.44966 | 10927 ft | 348 kts | 99° |
| 2026-04-15 07:02 | 60.02863 | 149.49506 | 10904 ft | 318 kts | 99° |
| 2026-04-15 07:02 | 60.02372 | 149.53627 | 10900 ft | 292 kts | 105° |
| 2026-04-15 07:02 | 60.01770 | 149.57391 | 10592 ft | 278 kts | 107° |
| 2026-04-15 07:03 | 60.01151 | 149.60969 | 10307 ft | 267 kts | 108° |
| 2026-04-15 07:03 | 60.00545 | 149.64455 | 9982 ft | 268 kts | 107° |
| 2026-04-15 07:03 | 59.99935 | 149.67967 | 9499 ft | 266 kts | 108° |
| 2026-04-15 07:03 | 59.99318 | 149.71432 | 9051 ft | 263 kts | 108° |
| 2026-04-15 07:04 | 59.98716 | 149.74860 | 8638 ft | 262 kts | 108° |
| 2026-04-15 07:04 | 59.98112 | 149.78300 | 8234 ft | 262 kts | 107° |
| 2026-04-15 07:04 | 59.97524 | 149.81669 | 7844 ft | 258 kts | 108° |
| 2026-04-15 07:04 | 59.96931 | 149.85041 | 7465 ft | 257 kts | 108° |
| 2026-04-15 07:05 | 59.96336 | 149.88400 | 7132 ft | 257 kts | 108° |
| 2026-04-15 07:05 | 59.95739 | 149.91751 | 6825 ft | 254 kts | 107° |
| 2026-04-15 07:05 | 59.95147 | 149.95084 | 6517 ft | 255 kts | 108° |
| 2026-04-15 07:05 | 59.94558 | 149.98412 | 6173 ft | 254 kts | 108° |
| 2026-04-15 07:06 | 59.93970 | 150.01732 | 5819 ft | 254 kts | 107° |
| 2026-04-15 07:06 | 59.93388 | 150.05025 | 5464 ft | 252 kts | 107° |
| 2026-04-15 07:06 | 59.92854 | 150.08339 | 5136 ft | 249 kts | 99° |
| 2026-04-15 07:06 | 59.92649 | 150.11754 | 4818 ft | 249 kts | 91° |
| 2026-04-15 07:07 | 59.92580 | 150.15185 | 4498 ft | 248 kts | 90° |
| 2026-04-15 07:07 | 59.92504 | 150.18606 | 4181 ft | 246 kts | 91° |
| 2026-04-15 07:07 | 59.92423 | 150.21978 | 4033 ft | 238 kts | 90° |
| 2026-04-15 07:07 | 59.92345 | 150.25145 | 3998 ft | 222 kts | 90° |
| 2026-04-15 07:08 | 59.92273 | 150.28240 | 4009 ft | 224 kts | 91° |
| 2026-04-15 07:08 | 59.92192 | 150.31345 | 4015 ft | 226 kts | 91° |
| 2026-04-15 07:08 | 59.92112 | 150.34463 | 4019 ft | 221 kts | 92° |
| 2026-04-15 07:08 | 59.92028 | 150.37369 | 3827 ft | 202 kts | 89° |
| 2026-04-15 07:09 | 59.91954 | 150.40013 | 3542 ft | 184 kts | 90° |
| 2026-04-15 07:09 | 59.91877 | 150.42587 | 3299 ft | 184 kts | 91° |
| 2026-04-15 07:09 | 59.91803 | 150.45113 | 3048 ft | 184 kts | 89° |
| 2026-04-15 07:09 | 59.91739 | 150.47650 | 2812 ft | 181 kts | 90° |
| 2026-04-15 07:10 | 59.91669 | 150.50029 | 2538 ft | 161 kts | 90° |
| 2026-04-15 07:10 | 59.91613 | 150.52175 | 2291 ft | 154 kts | 89° |
| 2026-04-15 07:10 | 59.91572 | 150.54273 | 2073 ft | 152 kts | 89° |
| 2026-04-15 07:10 | 59.91516 | 150.56404 | 1874 ft | 154 kts | 89° |
| 2026-04-15 07:11 | 59.91457 | 150.58542 | 1647 ft | 155 kts | 88° |
| 2026-04-15 07:11 | 59.91400 | 150.60661 | 1442 ft | 155 kts | 88° |
| 2026-04-15 07:11 | 59.91345 | 150.62808 | 1220 ft | 154 kts | 89° |
| 2026-04-15 07:11 | 59.91292 | 150.64934 | 996 ft | 153 kts | 90° |
| 2026-04-15 07:12 | 59.91233 | 150.67055 | 791 ft | 152 kts | 91° |
| 2026-04-15 07:12 | 59.91178 | 150.69160 | 622 ft | 151 kts | 92° |
| 2026-04-15 07:12 | 59.91128 | 150.71020 | 592 ft | 114 kts | 94° |
| 2026-04-15 07:12 | 59.91091 | 150.72311 | 588 ft | 62 kts | 92° |
| 2026-04-15 07:13 | 59.91080 | 150.72856 | 592 ft | 15 kts | 88° |